createdAt,value
2019-01-23T00:09:53.976Z,77.17
2019-01-23T00:21:35.484Z,77.50
2019-01-23T00:33:16.920Z,75.27
2019-01-23T00:44:59.208Z,67.13
2019-01-23T00:56:40.524Z,56.67
2019-01-23T01:08:21.943Z,72.73
2019-01-23T01:20:12.627Z,91.40
2019-01-23T01:31:55.264Z,74.47
2019-01-23T01:43:36.788Z,63.30
2019-01-23T01:55:19.044Z,69.80
2019-01-23T02:07:00.465Z,55.37
2019-01-23T02:18:41.933Z,63.00
2019-01-23T02:30:24.373Z,70.43
2019-01-23T02:42:05.872Z,77.97
2019-01-23T02:53:47.332Z,61.63
2019-01-23T03:05:29.696Z,62.43
2019-01-23T03:17:11.095Z,53.83
2019-01-23T03:28:52.476Z,52.17
2019-01-23T03:40:33.817Z,46.93
2019-01-23T03:52:15.947Z,48.80
2019-01-23T04:03:57.475Z,44.33
2019-01-23T04:15:39.822Z,46.17
2019-01-23T04:27:21.277Z,42.57
2019-01-23T04:39:05.309Z,56.97
2019-01-23T04:51:04.420Z,50.63
2019-01-23T05:02:45.856Z,59.60
2019-01-23T05:14:27.492Z,44.40
2019-01-23T05:26:09.820Z,45.67
2019-01-23T05:37:51.192Z,40.53
2019-01-23T05:49:32.592Z,47.47
2019-01-23T06:01:14.311Z,41.30
2019-01-23T06:12:55.820Z,52.07
2019-01-23T06:24:37.408Z,47.47
2019-01-23T06:36:19.731Z,36.60
2019-01-23T06:48:01.056Z,49.33
2019-01-23T06:59:42.452Z,41.53
2019-01-23T07:11:23.791Z,44.60
2019-01-23T07:23:05.323Z,46.30
2019-01-23T07:34:46.756Z,41.07
2019-01-23T07:46:29.763Z,29.90
2019-01-23T07:58:11.139Z,31.13
2019-01-23T08:09:52.861Z,32.17
2019-01-23T08:21:34.188Z,26.70
2019-01-23T08:33:15.607Z,27.93
2019-01-23T08:44:57.128Z,30.23
2019-01-23T08:56:39.440Z,31.10
2019-01-23T09:08:20.817Z,31.53
2019-01-23T09:20:06.756Z,27.43
2019-01-23T09:31:54.512Z,32.77
2019-01-23T09:43:53.237Z,30.43
2019-01-23T09:55:34.772Z,28.10
2019-01-23T10:07:17.069Z,24.83
2019-01-23T10:18:58.488Z,25.00
2019-01-23T10:30:39.920Z,25.97
2019-01-23T10:42:21.360Z,22.47
2019-01-23T10:54:02.924Z,25.20
2019-01-23T11:05:44.481Z,25.13
2019-01-23T11:17:26.793Z,27.20
2019-01-23T11:29:08.149Z,33.07
2019-01-23T11:40:49.463Z,33.60
2019-01-23T11:52:30.796Z,34.77
2019-01-23T12:04:13.160Z,32.00
2019-01-23T12:15:54.647Z,33.33
2019-01-23T12:27:36.878Z,37.20
2019-01-23T12:39:18.280Z,38.53
2019-01-23T12:50:59.712Z,36.40
2019-01-23T13:02:41.020Z,29.37
2019-01-23T13:14:22.544Z,33.43
2019-01-23T13:26:04.093Z,28.43
2019-01-23T13:37:46.384Z,34.60
2019-01-23T13:49:28.801Z,21.87
2019-01-23T14:01:28.444Z,23.43
2019-01-23T14:49:12.940Z,27.90
2019-01-23T15:00:54.456Z,32.97
2019-01-23T15:12:35.888Z,54.53
2019-01-23T15:24:17.372Z,27.90
2019-01-23T15:35:58.908Z,33.57
2019-01-23T15:47:40.444Z,66.93
2019-01-23T15:59:24.440Z,61.60
2019-01-23T16:11:05.876Z,107.43
2019-01-23T16:22:47.300Z,55.87
2019-01-23T16:34:28.691Z,61.30
2019-01-23T16:46:10.102Z,41.03
2019-01-23T16:57:51.812Z,51.13
2019-01-23T17:09:34.104Z,42.90
2019-01-23T17:21:16.376Z,32.50
2019-01-23T17:32:57.820Z,44.50
2019-01-23T17:44:39.368Z,29.87
2019-01-23T17:56:20.869Z,41.83
2019-01-23T18:08:02.415Z,47.60
2019-01-23T18:19:44.701Z,65.40
2019-01-23T18:31:28.120Z,47.50
2019-01-23T18:43:33.301Z,40.53
2019-01-23T18:55:16.832Z,43.23
2019-01-23T19:06:58.377Z,32.67
2019-01-23T19:18:39.916Z,39.73
2019-01-23T19:30:22.636Z,29.27
2019-01-23T19:42:04.408Z,37.90
2019-01-23T19:53:45.845Z,32.23
2019-01-23T20:05:27.249Z,36.53
2019-01-23T20:17:08.880Z,28.30
2019-01-23T20:28:50.221Z,25.50
2019-01-23T20:40:32.376Z,28.03
2019-01-23T20:52:13.805Z,29.57
2019-01-23T21:03:55.256Z,21.30
2019-01-23T21:15:36.686Z,31.77
2019-01-23T21:27:18.316Z,29.80
2019-01-23T21:38:59.752Z,27.33
2019-01-23T21:50:42.076Z,25.37
2019-01-23T22:02:23.497Z,28.90
2019-01-23T22:14:04.928Z,24.40
2019-01-23T22:25:46.265Z,27.23
2019-01-23T22:37:27.863Z,26.03
2019-01-23T22:49:09.292Z,27.77
2019-01-23T23:01:01.386Z,35.27
2019-01-23T23:12:44.709Z,30.53
2019-01-23T23:24:26.108Z,29.60
2019-01-23T23:36:07.542Z,29.23
2019-01-23T23:47:49.123Z,31.13
2019-01-23T23:59:30.650Z,31.20
